createdAt,value
2023-10-23T00:00:00.193Z,2.3
2023-10-23T00:05:00.265Z,1.7
2023-10-23T00:10:00.085Z,1.7
2023-10-23T00:15:00.095Z,1.4
2023-10-23T00:20:00.205Z,1.5
2023-10-23T00:25:00.086Z,1.6
2023-10-23T00:30:00.089Z,1.3
2023-10-23T00:35:00.108Z,1.6
2023-10-23T00:40:00.161Z,4.3
2023-10-23T00:45:00.107Z,1.3
2023-10-23T00:50:00.136Z,3.2
2023-10-23T00:55:00.126Z,1.8
2023-10-23T01:00:00.186Z,1.5
2023-10-23T01:05:00.108Z,1.4
2023-10-23T01:10:00.117Z,1.6
2023-10-23T01:15:00.110Z,1.9
2023-10-23T01:20:00.168Z,5.1
2023-10-23T01:25:00.128Z,1.1
2023-10-23T01:30:00.124Z,2.4
2023-10-23T01:35:00.123Z,2.6
2023-10-23T01:40:00.209Z,2.6
2023-10-23T01:45:00.141Z,3
2023-10-23T01:50:00.142Z,2.1
2023-10-23T01:55:00.151Z,1.5
2023-10-23T02:00:00.142Z,1.9
2023-10-23T02:05:00.101Z,1.3
2023-10-23T02:10:15.585Z,2.7
2023-10-23T02:15:00.105Z,1.4
2023-10-23T02:20:00.160Z,2.1
2023-10-23T02:25:00.144Z,2.5
2023-10-23T02:30:00.111Z,1.5
2023-10-23T02:35:00.102Z,1.7
2023-10-23T02:40:00.207Z,1.4
2023-10-23T02:45:00.124Z,1.6
2023-10-23T02:50:00.116Z,1.8
2023-10-23T02:55:00.145Z,2.4
2023-10-23T03:00:00.265Z,0.9
2023-10-23T03:05:00.119Z,2.1
2023-10-23T03:10:00.160Z,3.7
2023-10-23T03:15:00.104Z,2.5
2023-10-23T03:20:00.148Z,1.7
2023-10-23T03:25:00.182Z,1.3
2023-10-23T03:30:00.136Z,2.4
2023-10-23T03:35:00.117Z,2.2
2023-10-23T03:40:00.216Z,2.6
2023-10-23T03:45:00.111Z,1.6
2023-10-23T03:50:00.109Z,1.1
2023-10-23T03:55:00.158Z,0.9
2023-10-23T04:00:00.765Z,2.6
2023-10-23T04:05:00.100Z,1.9
2023-10-23T04:10:00.170Z,1.8
2023-10-23T04:15:00.129Z,1.2
2023-10-23T04:20:00.211Z,2.6
2023-10-23T04:25:00.187Z,1
2023-10-23T04:30:00.144Z,2.5
2023-10-23T04:35:00.133Z,1.9
2023-10-23T04:40:01.198Z,2.1
2023-10-23T04:45:00.123Z,1.7
2023-10-23T04:50:00.146Z,2
2023-10-23T04:55:00.217Z,3.6
2023-10-23T05:00:00.195Z,2
2023-10-23T05:05:00.157Z,2.1
2023-10-23T05:10:00.213Z,1.4
2023-10-23T05:15:00.120Z,2.2
2023-10-23T05:20:00.182Z,1.3
2023-10-23T05:25:00.180Z,1.9
2023-10-23T05:30:00.121Z,3.2
2023-10-23T05:35:00.108Z,2.2
2023-10-23T05:40:00.185Z,1.8
2023-10-23T05:45:00.117Z,1.7
2023-10-23T05:50:00.141Z,2.3
2023-10-23T05:55:01.899Z,2.6
2023-10-23T06:00:00.151Z,2.6
2023-10-23T06:05:00.101Z,2.4
2023-10-23T06:10:00.229Z,1.6
2023-10-23T06:15:00.217Z,2.3
2023-10-23T06:20:00.181Z,3.9
2023-10-23T06:25:00.156Z,1.5
2023-10-23T06:30:00.120Z,2.5
2023-10-23T06:35:00.100Z,1
2023-10-23T06:40:00.182Z,1
2023-10-23T06:45:00.194Z,2.7
2023-10-23T06:50:00.129Z,1.3
2023-10-23T06:55:00.086Z,1.7
2023-10-23T07:00:00.171Z,3
2023-10-23T07:05:00.099Z,3
2023-10-23T07:10:00.782Z,1.4
2023-10-23T07:15:00.139Z,1
2023-10-23T07:20:00.244Z,1.8
2023-10-23T07:25:00.101Z,2.1
2023-10-23T07:30:00.128Z,1.8
2023-10-23T07:35:00.112Z,1.6
2023-10-23T07:40:00.324Z,1.4
2023-10-23T07:45:00.094Z,3.2
2023-10-23T07:50:00.108Z,4.3
2023-10-23T07:55:00.117Z,3.8
2023-10-23T08:00:00.127Z,5.1
2023-10-23T08:05:00.131Z,3.6
2023-10-23T08:10:00.153Z,3.7
2023-10-23T08:15:00.091Z,4
2023-10-23T08:20:00.183Z,4.4
2023-10-23T08:25:00.136Z,4.3
2023-10-23T08:30:00.133Z,3.5
2023-10-23T08:35:00.082Z,6.8
2023-10-23T08:40:00.194Z,3.8
2023-10-23T08:45:00.098Z,2.8
2023-10-23T08:50:00.088Z,2.4
2023-10-23T08:55:00.154Z,3.9
2023-10-23T09:00:00.124Z,3.6
2023-10-23T09:05:00.168Z,3.7
2023-10-23T09:10:00.145Z,2.5
2023-10-23T09:15:00.095Z,5
2023-10-23T09:20:00.160Z,4.3
2023-10-23T09:25:00.150Z,3.3
2023-10-23T09:30:00.101Z,4.3
2023-10-23T09:35:00.152Z,2.6
2023-10-23T09:40:00.441Z,4
2023-10-23T09:45:00.239Z,2.6
2023-10-23T09:50:00.191Z,5.5
2023-10-23T09:55:00.103Z,4.3
2023-10-23T10:00:00.161Z,3.6
2023-10-23T10:05:00.098Z,3
2023-10-23T10:10:00.166Z,1.9
2023-10-23T10:15:00.084Z,3.1
2023-10-23T10:20:00.138Z,3.9
2023-10-23T10:25:00.112Z,2.5
2023-10-23T10:30:00.099Z,2.6
2023-10-23T10:35:00.256Z,3.8
2023-10-23T10:40:00.151Z,4.8
2023-10-23T10:45:00.100Z,3.2
2023-10-23T10:50:00.114Z,2.8
2023-10-23T10:55:00.134Z,1.5
2023-10-23T11:00:00.136Z,2.3
2023-10-23T11:05:00.088Z,4.9
2023-10-23T11:10:00.135Z,2
2023-10-23T11:15:00.101Z,4.6
2023-10-23T11:20:00.115Z,4
2023-10-23T11:25:00.099Z,3.1
2023-10-23T11:30:00.091Z,3.1
2023-10-23T11:35:00.101Z,3.3
2023-10-23T11:40:00.228Z,3.2
2023-10-23T11:45:00.084Z,2.8
2023-10-23T11:50:00.101Z,2.1
2023-10-23T11:55:00.146Z,1.9
2023-10-23T12:00:00.251Z,1.7
2023-10-23T12:05:00.178Z,2.3
2023-10-23T12:10:00.180Z,1.8
2023-10-23T12:15:00.090Z,3.1
2023-10-23T12:20:00.155Z,2.8
2023-10-23T12:25:00.118Z,2.6
2023-10-23T12:30:00.197Z,3.2
2023-10-23T12:35:00.207Z,2.9
2023-10-23T12:40:00.277Z,2.3
2023-10-23T12:45:00.107Z,3.8
2023-10-23T12:50:00.092Z,5.9
2023-10-23T12:55:00.207Z,3.5
2023-10-23T13:00:00.160Z,3.6
2023-10-23T13:05:01.236Z,2.9
2023-10-23T13:10:00.102Z,2.8
2023-10-23T13:15:00.099Z,2.8
2023-10-23T13:20:52.016Z,4.2
2023-10-23T13:25:00.152Z,5.1
2023-10-23T13:30:00.097Z,3.7
2023-10-23T13:35:00.079Z,4.9
2023-10-23T13:40:00.233Z,4.9
2023-10-23T13:45:00.093Z,5
2023-10-23T13:50:00.126Z,7.6
2023-10-23T13:55:00.106Z,5.4
2023-10-23T14:00:00.116Z,3.9
2023-10-23T14:05:00.160Z,4.2
2023-10-23T14:10:00.104Z,3.5
2023-10-23T14:15:00.134Z,4.2
2023-10-23T14:20:00.178Z,5.8
2023-10-23T14:25:00.122Z,3.7
2023-10-23T14:30:00.121Z,5
2023-10-23T14:35:00.099Z,3.6
2023-10-23T14:40:00.193Z,4
2023-10-23T14:45:00.103Z,3.9
2023-10-23T14:50:00.096Z,3.3
2023-10-23T14:55:00.099Z,3.6
2023-10-23T15:00:00.156Z,4
2023-10-23T15:05:00.107Z,3.4
2023-10-23T15:10:00.150Z,3.6
2023-10-23T15:15:00.104Z,4.2
2023-10-23T15:20:00.189Z,4.4
2023-10-23T15:25:00.109Z,4.2
2023-10-23T15:30:00.100Z,5.6
2023-10-23T15:35:00.115Z,2.9
2023-10-23T15:40:00.150Z,2.5
2023-10-23T15:45:00.105Z,3.9
2023-10-23T15:50:00.115Z,4.3
2023-10-23T15:55:00.137Z,1.6
2023-10-23T16:00:00.163Z,3.4
2023-10-23T16:05:00.127Z,3.2
2023-10-23T16:10:00.141Z,4.5
2023-10-23T16:15:00.316Z,3.3
2023-10-23T16:20:00.154Z,3.3
2023-10-23T16:25:00.136Z,4.5
2023-10-23T16:30:00.123Z,4.1
2023-10-23T16:35:00.138Z,7
2023-10-23T16:40:00.177Z,2.5
2023-10-23T16:45:00.253Z,2.5
2023-10-23T16:50:00.118Z,3.5
2023-10-23T16:55:00.200Z,4.5
2023-10-23T17:00:00.177Z,3.3
2023-10-23T17:05:00.113Z,3.7
2023-10-23T17:10:00.166Z,3.8
2023-10-23T17:15:00.121Z,4.9
2023-10-23T17:20:00.189Z,2.5
2023-10-23T17:25:00.167Z,4
2023-10-23T17:30:00.121Z,3.8
2023-10-23T17:35:00.117Z,3.2
2023-10-23T17:40:00.177Z,6.1
2023-10-23T17:45:00.102Z,2.6
2023-10-23T17:50:00.133Z,4.7
2023-10-23T17:55:00.212Z,4.8
2023-10-23T18:00:00.155Z,5.3
2023-10-23T18:05:00.089Z,5.2
2023-10-23T18:10:00.172Z,4.2
2023-10-23T18:15:00.137Z,3.4
2023-10-23T18:20:00.151Z,3.7
2023-10-23T18:25:00.228Z,3.9
2023-10-23T18:30:00.101Z,3.2
2023-10-23T18:35:00.088Z,3
2023-10-23T18:40:00.284Z,2
2023-10-23T18:45:00.231Z,4.9
2023-10-23T18:50:00.092Z,3.2
2023-10-23T18:55:00.142Z,2.9
2023-10-23T19:00:00.202Z,3.6
2023-10-23T19:05:00.100Z,2.9
2023-10-23T19:10:00.241Z,3.8
2023-10-23T19:15:00.086Z,3.4
2023-10-23T19:20:00.161Z,4
2023-10-23T19:25:00.162Z,2.7
2023-10-23T19:30:00.105Z,6
2023-10-23T19:35:00.093Z,4.8
2023-10-23T19:40:00.168Z,5.4
2023-10-23T19:45:00.101Z,3.1
2023-10-23T19:50:00.105Z,3.6
2023-10-23T19:55:03.238Z,5.8
2023-10-23T20:00:00.172Z,3.6
2023-10-23T20:05:00.251Z,4.5
2023-10-23T20:10:00.145Z,3.1
2023-10-23T20:15:00.139Z,3.9
2023-10-23T20:20:00.187Z,4.7
2023-10-23T20:25:01.149Z,4.5
2023-10-23T20:30:00.158Z,6.7
2023-10-23T20:35:00.136Z,2.9
2023-10-23T20:40:00.278Z,7.4
2023-10-23T20:45:00.134Z,4.6
2023-10-23T20:50:00.108Z,6.4
2023-10-23T20:55:00.248Z,6.4
2023-10-23T21:00:00.154Z,3.8
2023-10-23T21:05:00.089Z,5.9
2023-10-23T21:10:00.129Z,6.7
2023-10-23T21:15:00.082Z,6.4
2023-10-23T21:20:00.151Z,7.1
2023-10-23T21:25:00.097Z,7
2023-10-23T21:30:00.117Z,7
2023-10-23T21:35:00.156Z,5.9
2023-10-23T21:40:00.193Z,6
2023-10-23T21:45:00.104Z,6.4
2023-10-23T21:50:00.173Z,7.4
2023-10-23T21:55:01.954Z,7.5
2023-10-23T22:00:00.239Z,7.9
2023-10-23T22:05:00.092Z,7.7
2023-10-23T22:10:00.143Z,7.9
2023-10-23T22:15:00.111Z,8
2023-10-23T22:20:00.198Z,7.4
2023-10-23T22:25:00.088Z,6.7
2023-10-23T22:30:00.094Z,6.9
2023-10-23T22:35:00.100Z,4.3
2023-10-23T22:40:00.215Z,7.2
2023-10-23T22:45:00.130Z,6.5
2023-10-23T22:50:00.149Z,5.9
2023-10-23T22:55:00.218Z,7.1
2023-10-23T23:00:00.257Z,8.5
2023-10-23T23:05:00.158Z,7
2023-10-23T23:10:00.120Z,7
2023-10-23T23:15:00.119Z,7.9
2023-10-23T23:20:00.145Z,7.5
2023-10-23T23:25:00.119Z,6.4
2023-10-23T23:30:00.133Z,5.6
2023-10-23T23:35:00.113Z,7.8
2023-10-23T23:40:00.194Z,8.7
2023-10-23T23:45:00.116Z,5.5
2023-10-23T23:50:00.142Z,7
2023-10-23T23:55:00.133Z,7.1
